Time;durP1;ratioP1;P1;durP2;ratioP2;P2;SDS_P1;SDS_P2;PMS_P1;PMS_P2;Temp;Humidity;BMP_temperature;BMP_pressure;BME280_temperature;BME280_humidity;BME280_pressure;Samples;Min_cycle;Max_cycle;Signal;HPM_P1;HPM_P2
2022/08/31 00:04:47;;;;;;;16.47;12.60;;;;;;;25.51;63.19;99285.47;4994682;28;20189;-76
2022/08/31 00:07:13;;;;;;;16.23;12.67;;;;;;;25.39;63.22;99293.28;4994589;28;20206;-74
2022/08/31 00:09:40;;;;;;;16.53;12.83;;;;;;;25.25;63.16;99297.81;4994590;28;20199;-75
2022/08/31 00:12:07;;;;;;;13.73;12.47;;;;;;;25.04;63.76;99287.22;4994212;28;20611;-74
2022/08/31 00:14:34;;;;;;;14.63;13.23;;;;;;;24.68;65.12;99288.88;4994838;28;20226;-73
2022/08/31 00:17:03;;;;;;;15.20;12.87;;;;;;;24.87;64.58;99292.38;4994284;28;20202;-72
2022/08/31 00:19:30;;;;;;;14.33;12.67;;;;;;;24.96;65.06;99293.34;4994167;28;20191;-72
2022/08/31 00:21:57;;;;;;;16.07;12.80;;;;;;;24.74;64.95;99293.13;4994133;28;20193;-72
2022/08/31 00:24:23;;;;;;;14.80;13.27;;;;;;;24.74;66.06;99282.25;4994473;28;20205;-73
2022/08/31 00:26:50;;;;;;;16.17;12.87;;;;;;;24.82;66.98;99289.75;4993816;28;20667;-73
2022/08/31 00:29:17;;;;;;;13.17;11.77;;;;;;;25.08;65.10;99285.53;4993912;28;20296;-74
2022/08/31 00:31:44;;;;;;;13.23;12.03;;;;;;;25.21;64.75;99296.78;4993749;28;20257;-76
2022/08/31 00:34:12;;;;;;;11.80;10.73;;;;;;;25.37;64.36;99290.03;4994172;28;20219;-76
2022/08/31 00:36:39;;;;;;;14.30;12.90;;;;;;;25.42;62.79;99288.03;4994214;28;20257;-76
2022/08/31 00:39:06;;;;;;;16.87;12.87;;;;;;;25.23;64.40;99295.38;4993932;28;20198;-76
2022/08/31 00:41:38;;;;;;;13.03;12.10;;;;;;;25.61;63.43;99296.16;4994157;28;20277;-75
2022/08/31 00:44:07;;;;;;;14.07;11.87;;;;;;;25.57;62.93;99289.69;4993554;28;20249;-75
2022/08/31 00:46:36;;;;;;;13.90;12.20;;;;;;;25.25;64.92;99286.94;4994138;28;20199;-75
2022/08/31 00:49:06;;;;;;;13.97;12.60;;;;;;;25.14;64.52;99283.56;4993736;28;20199;-75
2022/08/31 00:51:39;;;;;;;12.80;11.73;;;;;;;25.23;65.16;99284.50;4993519;28;20198;-74
2022/08/31 00:54:08;;;;;;;14.00;12.70;;;;;;;25.56;62.68;99288.09;4992533;28;20214;-73
2022/08/31 00:56:36;;;;;;;13.57;12.17;;;;;;;25.74;62.54;99289.94;4993246;28;20686;-72
2022/08/31 00:59:03;;;;;;;13.53;12.13;;;;;;;25.79;62.13;99293.38;4993428;28;20260;-72
2022/08/31 01:01:30;;;;;;;13.17;11.80;;;;;;;25.87;61.82;99291.84;4993837;28;20248;-74
2022/08/31 01:03:58;;;;;;;24.47;11.90;;;;;;;25.97;61.86;99289.00;5005657;28;20197;-74
2022/08/31 01:06:26;;;;;;;13.53;10.60;;;;;;;26.09;61.62;99283.88;5011591;28;20751;-75
2022/08/31 01:08:57;;;;;;;13.77;11.53;;;;;;;26.13;60.09;99282.94;5013070;28;20385;-75
2022/08/31 01:11:24;;;;;;;12.87;11.47;;;;;;;26.19;60.12;99289.09;5014059;28;20233;-75
2022/08/31 01:13:51;;;;;;;12.17;11.03;;;;;;;26.12;60.74;99280.53;5012466;28;20226;-75
2022/08/31 01:16:22;;;;;;;12.73;11.53;;;;;;;26.05;60.79;99282.84;5012892;28;20194;-75
2022/08/31 01:18:51;;;;;;;11.20;9.77;;;;;;;25.90;61.55;99283.09;5012523;28;20186;-75
2022/08/31 01:21:25;;;;;;;12.77;10.70;;;;;;;26.06;60.22;99276.28;5012883;28;20201;-75
2022/08/31 01:23:55;;;;;;;12.10;10.50;;;;;;;26.32;60.07;99282.84;5013227;28;20640;-75
2022/08/31 01:26:25;;;;;;;11.60;10.50;;;;;;;26.44;59.49;99288.59;5012492;28;20194;-75
2022/08/31 01:28:56;;;;;;;12.63;10.77;;;;;;;26.18;60.44;99292.94;5012439;28;20234;-74
2022/08/31 01:31:27;;;;;;;10.93;9.80;;;;;;;26.21;59.98;99284.19;5013602;28;20226;-76
2022/08/31 01:33:53;;;;;;;12.27;11.10;;;;;;;26.15;60.34;99277.19;5012317;28;20214;-74
2022/08/31 01:36:21;;;;;;;11.40;10.57;;;;;;;26.15;60.37;99285.38;5012657;28;20244;-74
2022/08/31 01:38:48;;;;;;;11.77;10.67;;;;;;;26.10;61.35;99285.47;5012530;28;20268;-74
2022/08/31 01:41:16;;;;;;;12.03;10.53;;;;;;;26.05;61.17;99282.84;5012301;28;20237;-74
2022/08/31 01:43:43;;;;;;;11.40;10.47;;;;;;;25.90;60.37;99288.53;5012059;28;20198;-74
2022/08/31 01:46:12;;;;;;;12.60;11.23;;;;;;;25.76;61.11;99276.84;5012419;28;20194;-73
2022/08/31 01:48:40;;;;;;;12.57;11.10;;;;;;;25.39;62.14;99276.94;5012249;28;20200;-74
2022/08/31 01:51:07;;;;;;;15.97;11.67;;;;;;;25.02;64.13;99272.31;5011978;28;20585;-74
2022/08/31 01:53:34;;;;;;;14.87;12.13;;;;;;;24.90;63.88;99271.97;5012299;28;20229;-73
2022/08/31 01:56:02;;;;;;;13.07;11.80;;;;;;;24.89;64.40;99273.88;5012134;28;20198;-74
2022/08/31 01:58:30;;;;;;;12.10;11.00;;;;;;;24.92;65.12;99267.84;5012054;28;20659;-74
2022/08/31 02:00:57;;;;;;;18.30;11.83;;;;;;;24.90;64.21;99270.06;5012031;28;20190;-74
2022/08/31 02:03:23;;;;;;;12.07;10.87;;;;;;;24.98;65.12;99274.84;5003407;28;20198;-74
2022/08/31 02:05:50;;;;;;;15.47;11.90;;;;;;;25.08;64.47;99270.34;4993465;28;20198;-74
2022/08/31 02:08:17;;;;;;;13.50;12.03;;;;;;;25.13;63.83;99267.53;4997054;28;20252;-74
2022/08/31 02:10:45;;;;;;;12.67;11.40;;;;;;;25.10;64.52;99263.50;4996350;28;20640;-74
2022/08/31 02:13:12;;;;;;;13.63;11.73;;;;;;;25.31;64.15;99258.59;4996732;28;20229;-75
2022/08/31 02:15:40;;;;;;;24.13;11.80;;;;;;;25.49;63.36;99265.88;4996518;28;20285;-74
2022/08/31 02:18:07;;;;;;;13.90;11.67;;;;;;;25.64;62.75;99257.47;4996231;28;20269;-75
2022/08/31 02:20:35;;;;;;;13.03;10.73;;;;;;;25.68;62.75;99261.22;4996174;28;20202;-77
2022/08/31 02:23:02;;;;;;;15.17;11.20;;;;;;;25.68;62.45;99264.72;4996589;28;20258;-75
2022/08/31 02:25:29;;;;;;;11.93;10.80;;;;;;;25.80;61.33;99272.41;4996057;28;20199;-74
2022/08/31 02:27:56;;;;;;;11.47;10.27;;;;;;;25.87;61.43;99267.38;4996360;28;20257;-73
2022/08/31 02:30:22;;;;;;;11.60;10.63;;;;;;;25.90;60.83;99269.50;4996706;28;20227;-73
2022/08/31 02:32:51;;;;;;;12.17;10.97;;;;;;;25.95;61.55;99263.97;4996248;28;20199;-74
2022/08/31 02:35:18;;;;;;;11.47;10.40;;;;;;;25.88;61.12;99256.19;4995765;28;20657;-73
2022/08/31 02:37:45;;;;;;;14.53;11.37;;;;;;;25.69;61.16;99257.38;4996168;28;20248;-75
2022/08/31 02:40:12;;;;;;;14.37;10.83;;;;;;;25.61;62.07;99263.50;4996219;28;20199;-74
2022/08/31 02:42:39;;;;;;;11.20;10.20;;;;;;;25.61;61.68;99266.22;4996377;28;20199;-74
2022/08/31 02:45:07;;;;;;;13.13;10.67;;;;;;;25.63;62.13;99261.31;4995935;28;20207;-74
2022/08/31 02:47:34;;;;;;;11.70;10.67;;;;;;;25.63;62.26;99264.03;4995354;28;20252;-74
2022/08/31 02:50:05;;;;;;;11.47;10.53;;;;;;;25.54;62.24;99269.34;4995673;28;20195;-74
2022/08/31 02:52:31;;;;;;;12.10;10.77;;;;;;;25.41;61.85;99259.22;4996470;28;20245;-74
2022/08/31 02:54:58;;;;;;;11.30;10.27;;;;;;;25.14;62.76;99253.66;4995568;28;20222;-75
2022/08/31 02:57:25;;;;;;;13.07;11.87;;;;;;;25.10;64.30;99258.06;4995787;28;20202;-74
2022/08/31 02:59:52;;;;;;;12.27;11.00;;;;;;;25.01;64.72;99254.41;4995724;28;20249;-74
2022/08/31 03:02:19;;;;;;;12.57;11.47;;;;;;;25.08;64.72;99244.75;4995612;28;20210;-74
2022/08/31 03:04:45;;;;;;;14.27;11.47;;;;;;;25.00;63.95;99252.81;5014881;28;20256;-75
2022/08/31 03:07:13;;;;;;;12.27;11.07;;;;;;;24.93;64.88;99250.47;5014729;28;20194;-74
2022/08/31 03:09:40;;;;;;;12.40;11.30;;;;;;;24.71;64.71;99252.94;5014744;28;20244;-74
2022/08/31 03:12:07;;;;;;;13.30;11.47;;;;;;;24.58;64.35;99244.69;5014878;28;20256;-74
2022/08/31 03:14:34;;;;;;;15.83;11.93;;;;;;;24.56;65.01;99244.19;5014942;28;20280;-74
2022/08/31 03:17:01;;;;;;;12.57;11.27;;;;;;;24.56;65.71;99236.84;5013896;28;20194;-75
2022/08/31 03:19:28;;;;;;;13.43;10.80;;;;;;;24.64;65.77;99236.22;5014418;28;20252;-75
2022/08/31 03:21:54;;;;;;;11.73;10.67;;;;;;;24.76;65.08;99241.19;5014803;28;20276;-76
2022/08/31 03:24:23;;;;;;;12.70;10.33;;;;;;;24.95;64.42;99242.81;5014715;28;20209;-77
2022/08/31 03:26:49;;;;;;;11.63;10.60;;;;;;;24.96;63.75;99238.97;5014954;28;20205;-75
2022/08/31 03:29:16;;;;;;;11.50;10.40;;;;;;;24.63;63.32;99234.59;5014686;28;20299;-75
2022/08/31 03:31:43;;;;;;;12.53;10.97;;;;;;;24.60;63.81;99237.06;5014747;28;20252;-76
2022/08/31 03:34:10;;;;;;;13.53;11.40;;;;;;;24.56;63.58;99242.28;5014557;28;20221;-75
2022/08/31 03:36:37;;;;;;;12.17;10.87;;;;;;;24.37;65.01;99233.28;5014682;28;20193;-76
2022/08/31 03:39:03;;;;;;;12.97;11.83;;;;;;;24.29;65.64;99236.66;5014337;28;20197;-76
2022/08/31 03:41:31;;;;;;;15.87;11.90;;;;;;;24.18;66.85;99229.72;5014554;28;20263;-75
2022/08/31 03:44:00;;;;;;;16.13;12.43;;;;;;;23.94;66.14;99234.34;5014559;28;20205;-75
2022/08/31 03:46:28;;;;;;;13.10;11.33;;;;;;;23.86;66.89;99245.03;5014023;28;20685;-74
2022/08/31 03:48:54;;;;;;;14.53;11.73;;;;;;;23.78;67.20;99241.03;5014158;28;20733;-74
2022/08/31 03:51:21;;;;;;;12.83;11.63;;;;;;;24.05;67.44;99233.16;5013688;28;20199;-73
2022/08/31 03:53:48;;;;;;;15.47;11.40;;;;;;;24.19;65.75;99247.66;5014101;28;20267;-73
2022/08/31 03:56:14;;;;;;;17.57;11.43;;;;;;;24.23;66.26;99245.97;5013726;28;20257;-74
2022/08/31 03:58:43;;;;;;;13.10;10.57;;;;;;;24.37;66.61;99255.00;5014040;28;20197;-74
2022/08/31 04:01:11;;;;;;;13.77;11.30;;;;;;;24.50;64.88;99259.72;5013829;28;20193;-75
2022/08/31 04:03:38;;;;;;;13.23;11.97;;;;;;;24.46;64.69;99253.25;5003106;28;20737;-75
2022/08/31 04:06:08;;;;;;;13.63;12.00;;;;;;;24.61;65.21;99260.44;4994160;28;20260;-75
2022/08/31 04:08:35;;;;;;;15.70;11.20;;;;;;;24.80;64.71;99264.75;4994256;28;20194;-75
2022/08/31 04:11:07;;;;;;;18.60;12.10;;;;;;;24.91;62.72;99270.88;4994066;28;20739;-75
2022/08/31 04:13:35;;;;;;;22.50;11.73;;;;;;;24.93;63.61;99271.38;4994401;28;20194;-74
2022/08/31 04:16:06;;;;;;;17.40;11.83;;;;;;;24.98;64.06;99273.22;4993526;28;20222;-74
2022/08/31 04:18:33;;;;;;;29.70;13.23;;;;;;;25.10;63.29;99276.31;4993821;28;20753;-73
2022/08/31 04:21:00;;;;;;;24.03;12.20;;;;;;;25.12;62.78;99282.25;4993491;28;20198;-72
2022/08/31 04:23:28;;;;;;;30.77;12.73;;;;;;;25.09;63.34;99283.63;4993584;28;20752;-74
2022/08/31 04:25:56;;;;;;;31.33;14.23;;;;;;;25.02;63.82;99272.31;4993522;28;20210;-73
2022/08/31 04:28:23;;;;;;;63.50;14.37;;;;;;;25.06;64.11;99283.44;4993614;28;20737;-73
2022/08/31 04:30:50;;;;;;;53.00;15.10;;;;;;;25.07;63.34;99268.72;4993849;28;20230;-73
2022/08/31 04:33:18;;;;;;;63.83;14.20;;;;;;;25.22;63.53;99277.44;4994413;28;20190;-74
2022/08/31 04:35:45;;;;;;;40.20;13.83;;;;;;;25.36;63.31;99274.81;4993342;28;20718;-75
2022/08/31 04:38:12;;;;;;;29.53;12.90;;;;;;;25.50;62.91;99278.38;4993355;28;20199;-75
2022/08/31 04:40:39;;;;;;;24.67;11.90;;;;;;;25.60;62.68;99280.94;4993382;28;20725;-74
2022/08/31 04:43:06;;;;;;;37.50;13.70;;;;;;;25.69;62.24;99276.41;4993262;28;20195;-74
2022/08/31 04:45:33;;;;;;;24.23;12.57;;;;;;;25.78;62.20;99274.63;4992989;28;20630;-75
2022/08/31 04:48:00;;;;;;;36.37;13.97;;;;;;;25.89;61.93;99282.28;4993049;28;20256;-75
2022/08/31 04:50:28;;;;;;;28.93;12.50;;;;;;;26.00;61.36;99277.50;4993143;28;20195;-74
2022/08/31 04:52:55;;;;;;;27.20;12.80;;;;;;;26.16;60.98;99273.34;4993293;28;20194;-76
2022/08/31 04:55:21;;;;;;;32.70;13.83;;;;;;;26.32;60.08;99274.66;4993235;28;20222;-74
2022/08/31 04:57:48;;;;;;;26.23;12.80;;;;;;;26.46;60.24;99268.09;4993617;28;20554;-74
2022/08/31 05:00:15;;;;;;;10.83;7.87;;;;;;;26.69;60.16;99280.72;4992774;28;20697;-72
2022/08/31 05:02:42;;;;;;;14.90;8.83;;;;;;;27.06;58.39;99280.41;4995942;28;20181;-72
2022/08/31 05:05:10;;;;;;;19.00;12.30;;;;;;;27.34;55.77;99278.41;5012652;28;20248;-76
2022/08/31 05:07:38;;;;;;;47.63;13.40;;;;;;;27.62;55.62;99282.59;5009208;28;20686;-74
2022/08/31 05:10:06;;;;;;;19.70;12.17;;;;;;;27.77;54.83;99280.28;4995005;28;20711;-72
2022/08/31 05:12:32;;;;;;;22.33;11.07;;;;;;;28.19;53.94;99282.44;5012462;28;20198;-70
2022/08/31 05:14:59;;;;;;;24.57;10.90;;;;;;;28.63;52.63;99285.00;5012258;28;20299;-73
2022/08/31 05:17:26;;;;;;;21.57;10.43;;;;;;;29.01;51.51;99293.44;5012248;28;20197;-73
2022/08/31 05:19:53;;;;;;;19.83;10.53;;;;;;;29.50;49.68;99287.47;5012303;28;20697;-72
2022/08/31 05:22:20;;;;;;;52.53;12.53;;;;;;;29.88;47.25;99301.28;5012348;28;20719;-73
2022/08/31 05:24:48;;;;;;;15.03;10.10;;;;;;;30.11;47.36;99289.75;5009029;28;20197;-74
2022/08/31 05:27:15;;;;;;;22.57;10.83;;;;;;;30.42;45.77;99294.94;5010481;28;20198;-73
2022/08/31 05:29:42;;;;;;;21.43;10.63;;;;;;;30.70;43.79;99291.41;5011937;28;20311;-74
2022/08/31 05:32:08;;;;;;;17.47;9.80;;;;;;;30.73;43.37;99296.25;5011843;28;20689;-73
2022/08/31 05:34:35;;;;;;;17.13;9.63;;;;;;;30.66;44.96;99289.66;5012034;28;20279;-72
2022/08/31 05:37:02;;;;;;;15.70;9.50;;;;;;;30.87;44.25;99285.03;5010836;28;20204;-73
2022/08/31 05:39:29;;;;;;;13.00;9.97;;;;;;;31.20;43.36;99286.66;5011755;28;20248;-73
2022/08/31 05:41:57;;;;;;;14.57;9.30;;;;;;;31.62;42.28;99284.69;5010019;28;20198;-72
2022/08/31 05:44:25;;;;;;;18.63;8.40;;;;;;;31.97;41.03;99286.75;5012646;28;20276;-82
2022/08/31 05:46:52;;;;;;;18.47;8.80;;;;;;;31.82;40.06;99284.69;5012312;28;20653;-79
2022/08/31 05:49:19;;;;;;;11.17;8.37;;;;;;;31.71;40.94;99283.47;5011840;28;20750;-71
2022/08/31 05:51:46;;;;;;;20.03;9.07;;;;;;;31.62;40.73;99285.50;5011757;28;20674;-71
2022/08/31 05:54:14;;;;;;;14.20;8.97;;;;;;;30.97;41.50;99279.94;5012066;28;20194;-72
2022/08/31 05:56:41;;;;;;;16.53;9.20;;;;;;;30.86;42.43;99281.47;5009320;28;20205;-70
2022/08/31 05:59:10;;;;;;;17.47;9.07;;;;;;;30.43;42.73;99269.94;5011822;28;20280;-69
2022/08/31 06:01:39;;;;;;;13.97;9.43;;;;;;;30.08;43.94;99267.69;5011313;28;20695;-71
2022/08/31 06:04:07;;;;;;;10.13;8.97;;;;;;;30.14;44.27;99269.94;5011828;28;20642;-71
2022/08/31 06:06:34;;;;;;;13.97;9.13;;;;;;;30.23;44.50;99269.88;5011669;28;20670;-71
2022/08/31 06:09:01;;;;;;;23.87;9.73;;;;;;;30.10;43.92;99279.94;5010549;28;20584;-71
2022/08/31 06:11:30;;;;;;;12.37;9.27;;;;;;;29.78;43.45;99275.03;5011018;28;20611;-69
2022/08/31 06:13:59;;;;;;;14.37;8.43;;;;;;;29.92;44.23;99278.38;5010301;28;20193;-69
2022/08/31 06:16:28;;;;;;;10.67;8.33;;;;;;;30.02;44.25;99271.72;5011528;28;20221;-67
2022/08/31 06:18:57;;;;;;;13.60;8.90;;;;;;;30.06;43.75;99276.22;5011400;28;20199;-68
2022/08/31 06:21:27;;;;;;;9.57;7.83;;;;;;;30.34;43.63;99273.88;5011276;28;20277;-69
2022/08/31 06:23:56;;;;;;;10.23;8.67;;;;;;;30.68;43.19;99276.41;5011704;28;20284;-68
2022/08/31 06:26:25;;;;;;;13.70;8.00;;;;;;;31.02;42.55;99282.47;5011455;28;20606;-70
2022/08/31 06:28:53;;;;;;;14.67;7.83;;;;;;;31.40;41.52;99283.13;5011784;28;20631;-70
2022/08/31 06:31:25;;;;;;;8.33;7.63;;;;;;;31.79;39.08;99285.34;5011403;28;20190;-70
2022/08/31 06:33:55;;;;;;;7.90;7.20;;;;;;;32.05;38.42;99283.09;5012235;28;20187;-71
2022/08/31 06:36:24;;;;;;;6.93;6.17;;;;;;;32.12;36.98;99285.28;5011428;28;20253;-72
2022/08/31 06:38:51;;;;;;;9.77;7.10;;;;;;;32.16;37.35;99278.78;5011817;28;20190;-72
2022/08/31 06:41:21;;;;;;;13.67;7.27;;;;;;;32.34;36.87;99293.91;5011285;28;20190;-72
2022/08/31 06:43:48;;;;;;;12.10;6.57;;;;;;;32.68;36.39;99295.41;5010600;28;20201;-71
2022/08/31 06:46:16;;;;;;;7.00;6.37;;;;;;;32.79;35.61;99294.56;5010294;28;20634;-71
2022/08/31 06:48:44;;;;;;;10.50;6.83;;;;;;;32.98;36.20;99283.78;5010285;28;20198;-70
2022/08/31 06:51:13;;;;;;;8.23;6.30;;;;;;;33.41;34.43;99288.59;5009687;28;20248;-70
2022/08/31 06:53:42;;;;;;;7.47;6.67;;;;;;;33.12;34.61;99292.44;5012484;28;20202;-73
2022/08/31 06:56:11;;;;;;;13.80;6.87;;;;;;;33.17;34.62;99292.22;5015083;28;20312;-71
2022/08/31 06:58:38;;;;;;;12.88;7.05;;;;;;;33.48;34.05;99288.81;5015170;28;20670;-72
2022/08/31 07:01:06;;;;;;;7.80;6.40;;;;;;;33.63;33.44;99290.00;5014509;28;20209;-72
2022/08/31 07:03:36;;;;;;;20.67;7.88;;;;;;;33.79;33.43;99286.09;5015052;28;20248;-70
2022/08/31 07:06:08;;;;;;;7.28;6.30;;;;;;;33.95;33.18;99283.38;5015067;28;20233;-70
2022/08/31 07:08:37;;;;;;;7.05;6.55;;;;;;;34.29;33.45;99290.97;5014736;28;20194;-69
2022/08/31 07:11:04;;;;;;;17.95;7.05;;;;;;;34.54;33.13;99290.41;5014899;28;20190;-70
2022/08/31 07:13:31;;;;;;;7.10;5.85;;;;;;;34.70;33.21;99280.16;5014582;28;20662;-68
2022/08/31 07:16:06;;;;;;;7.50;6.80;;;;;;;34.88;32.30;99284.16;5014711;28;20221;-69
2022/08/31 07:18:33;;;;;;;8.48;6.32;;;;;;;35.00;31.44;99289.53;5014271;28;20617;-70
2022/08/31 07:21:11;;;;;;;9.85;7.10;;;;;;;34.44;32.61;99282.69;5014875;28;20198;-72
2022/08/31 07:23:40;;;;;;;7.07;6.35;;;;;;;34.87;32.23;99287.28;5014521;28;20566;-71
2022/08/31 07:26:08;;;;;;;7.22;6.35;;;;;;;35.18;32.30;99282.44;5014505;28;20356;-71
2022/08/31 07:28:37;;;;;;;17.13;6.88;;;;;;;35.32;31.25;99288.25;5014411;28;20197;-71
2022/08/31 07:31:08;;;;;;;9.00;6.93;;;;;;;35.38;31.10;99283.25;5014384;28;20213;-71
2022/08/31 07:33:37;;;;;;;6.57;5.93;;;;;;;35.65;31.26;99285.78;5014709;28;20625;-71
2022/08/31 07:36:07;;;;;;;7.50;5.95;;;;;;;35.81;30.50;99288.47;5014461;28;20376;-71
2022/08/31 07:44:06;;;;;;;11.02;6.45;;;;;;;36.11;29.57;99281.91;5013905;28;20650;-71
2022/08/31 07:46:34;;;;;;;15.35;6.65;;;;;;;36.10;29.91;99279.50;5013821;28;20197;-71
2022/08/31 07:49:01;;;;;;;9.75;6.63;;;;;;;36.12;29.42;99271.59;5013857;28;20304;-70
2022/08/31 07:51:28;;;;;;;10.05;5.97;;;;;;;36.24;29.24;99271.44;5013068;28;20264;-70
2022/08/31 07:53:56;;;;;;;6.85;6.20;;;;;;;36.39;29.87;99276.03;5013302;28;20194;-68
2022/08/31 07:56:24;;;;;;;9.77;6.40;;;;;;;36.45;28.70;99280.91;5013912;28;20253;-70
2022/08/31 07:58:51;;;;;;;6.47;5.90;;;;;;;36.47;29.42;99272.22;5013574;28;20728;-70
2022/08/31 08:01:18;;;;;;;14.75;7.43;;;;;;;36.45;29.32;99269.00;5014729;28;20198;-70
2022/08/31 08:03:45;;;;;;;7.78;6.85;;;;;;;36.23;28.99;99258.78;5001496;28;20202;-70
2022/08/31 08:06:14;;;;;;;7.25;6.55;;;;;;;36.21;28.85;99258.34;5009209;28;20264;-70
2022/08/31 08:08:42;;;;;;;8.63;6.15;;;;;;;36.43;28.85;99254.75;5013896;28;20194;-70
2022/08/31 08:11:09;;;;;;;9.32;7.03;;;;;;;36.53;29.09;99259.66;5013683;28;20195;-70
2022/08/31 08:13:37;;;;;;;7.78;6.65;;;;;;;36.61;28.31;99253.03;5013795;28;20198;-70
2022/08/31 08:16:04;;;;;;;8.65;6.20;;;;;;;36.72;28.47;99252.06;5013541;28;20272;-71
2022/08/31 08:18:31;;;;;;;7.28;6.50;;;;;;;36.67;29.31;99251.56;5013446;28;20194;-70
2022/08/31 08:20:58;;;;;;;6.90;6.30;;;;;;;36.57;28.81;99250.22;5013667;28;20202;-69
2022/08/31 08:23:24;;;;;;;11.98;6.55;;;;;;;36.30;29.24;99239.53;5013344;28;20194;-70
2022/08/31 08:25:51;;;;;;;9.00;6.93;;;;;;;36.11;29.13;99245.13;5013419;28;20202;-70
2022/08/31 08:28:20;;;;;;;8.65;6.95;;;;;;;36.12;28.89;99238.41;5013389;28;20198;-71
2022/08/31 08:30:53;;;;;;;11.23;6.53;;;;;;;36.21;29.52;99247.28;5013700;28;20233;-71
2022/08/31 08:33:20;;;;;;;8.63;6.30;;;;;;;35.96;29.65;99240.50;5013188;28;20253;-70
2022/08/31 08:35:55;;;;;;;7.03;6.57;;;;;;;35.99;30.46;99237.00;5012887;28;20230;-70
2022/08/31 08:38:22;;;;;;;11.40;6.28;;;;;;;36.24;30.36;99241.81;5013459;28;20224;-70
2022/08/31 08:40:50;;;;;;;9.68;6.78;;;;;;;36.15;29.07;99232.16;5013282;28;20190;-70
2022/08/31 08:43:19;;;;;;;10.38;6.28;;;;;;;36.03;29.34;99233.16;5012953;28;20193;-70
2022/08/31 08:45:52;;;;;;;7.72;6.28;;;;;;;35.92;28.89;99229.41;5013217;28;20256;-70
2022/08/31 08:48:23;;;;;;;7.45;6.15;;;;;;;35.99;29.26;99228.72;5012881;28;20624;-72
2022/08/31 08:50:51;;;;;;;9.73;6.78;;;;;;;36.19;28.98;99233.81;5012842;28;20193;-72
2022/08/31 08:53:22;;;;;;;6.90;6.18;;;;;;;36.14;29.72;99225.03;5012887;28;20761;-71
2022/08/31 08:55:50;;;;;;;7.45;6.07;;;;;;;36.26;28.95;99233.16;5012859;28;20297;-71
2022/08/31 08:58:18;;;;;;;11.90;6.63;;;;;;;36.42;29.04;99226.28;5012532;28;20198;-71
2022/08/31 09:00:51;;;;;;;6.47;5.93;;;;;;;35.98;28.40;99225.19;5012383;28;20230;-70
2022/08/31 09:03:29;;;;;;;6.78;6.13;;;;;;;36.01;28.34;99226.41;5012420;28;20194;-70
2022/08/31 09:06:08;;;;;;;6.97;6.55;;;;;;;36.20;28.84;99212.47;5012716;28;20564;-71
2022/08/31 09:09:06;;;;;;;7.22;6.22;;;;;;;36.28;28.82;99222.50;5012391;28;20186;-70
2022/08/31 09:11:45;;;;;;;6.55;6.03;;;;;;;35.59;29.12;99214.56;5013012;28;20205;-70
2022/08/31 09:14:24;;;;;;;11.35;6.18;;;;;;;35.90;29.10;99208.81;5013009;28;20569;-70
2022/08/31 09:17:02;;;;;;;6.70;6.13;;;;;;;35.72;28.15;99213.22;5011684;28;20210;-70
2022/08/31 09:19:56;;;;;;;9.50;6.07;;;;;;;35.77;28.38;99210.19;5012420;28;20201;-70
2022/08/31 09:22:16;;;;;;;7.18;6.57;;;;;;;35.64;29.11;99205.97;5012027;28;20199;-70
2022/08/31 09:24:43;;;;;;;6.53;6.03;;;;;;;35.89;28.19;99207.22;5012024;28;20201;-69
2022/08/31 09:27:17;;;;;;;11.20;5.80;;;;;;;35.76;26.17;99203.06;5012382;28;20555;-70
2022/08/31 09:29:46;;;;;;;7.90;5.85;;;;;;;35.85;26.69;99196.09;5012550;28;20232;-70
2022/08/31 09:32:21;;;;;;;6.82;5.53;;;;;;;35.95;27.87;99192.72;5012154;28;20252;-70
2022/08/31 09:34:55;;;;;;;10.10;6.20;;;;;;;35.44;28.60;99190.59;5012368;28;20190;-70
2022/08/31 09:37:23;;;;;;;8.48;6.65;;;;;;;35.22;29.29;99188.56;5012721;28;20206;-71
2022/08/31 09:39:52;;;;;;;7.40;6.10;;;;;;;35.52;29.59;99184.03;5012291;28;20201;-71
2022/08/31 09:42:29;;;;;;;6.65;6.15;;;;;;;35.74;29.09;99174.94;5011926;28;20627;-71
2022/08/31 09:44:59;;;;;;;10.27;7.07;;;;;;;35.90;29.12;99178.41;5012132;28;20201;-70
2022/08/31 09:47:47;;;;;;;10.95;6.50;;;;;;;35.65;28.38;99174.41;5011784;28;20201;-71
2022/08/31 09:50:27;;;;;;;8.68;6.75;;;;;;;35.80;28.11;99167.97;5011876;28;20650;-70
2022/08/31 09:56:12;;;;;;;11.13;6.43;;;;;;;36.25;27.90;99165.16;5012146;28;20210;-70
2022/08/31 09:58:41;;;;;;;9.05;6.15;;;;;;;36.33;28.06;99162.09;5012002;28;20189;-70
2022/08/31 10:01:14;;;;;;;9.85;6.32;;;;;;;36.51;29.03;99151.28;5011768;28;20388;-70
2022/08/31 10:03:46;;;;;;;6.68;6.13;;;;;;;36.72;28.15;99154.34;5000358;28;20246;-70
2022/08/31 10:06:44;;;;;;;7.20;6.68;;;;;;;36.28;28.55;99142.25;4992569;28;20198;-70
2022/08/31 10:09:17;;;;;;;7.65;6.95;;;;;;;36.35;28.09;99157.00;4992095;28;20774;-70
2022/08/31 10:11:47;;;;;;;14.20;6.65;;;;;;;36.33;28.63;99137.19;4992055;28;20630;-70
2022/08/31 10:14:24;;;;;;;11.02;6.90;;;;;;;36.24;28.80;99146.94;4992618;28;20202;-70
2022/08/31 10:16:59;;;;;;;13.15;6.63;;;;;;;35.73;29.25;99132.66;4992748;28;20209;-71
2022/08/31 10:19:38;;;;;;;9.82;6.97;;;;;;;35.92;28.48;99140.09;4992231;28;20213;-71
2022/08/31 10:22:12;;;;;;;11.48;7.00;;;;;;;35.96;28.41;99124.34;4992502;28;20197;-71
2022/08/31 10:24:45;;;;;;;10.02;6.93;;;;;;;35.67;29.58;99119.53;4992268;28;20651;-72
2022/08/31 10:27:16;;;;;;;10.55;7.15;;;;;;;35.88;28.60;99108.84;4993487;28;20209;-72
2022/08/31 10:29:52;;;;;;;23.30;7.60;;;;;;;36.22;28.46;99103.03;4995476;28;20238;-72
2022/08/31 10:32:30;;;;;;;13.90;7.13;;;;;;;36.36;27.82;99107.97;4995751;28;20602;-71
2022/08/31 10:35:06;;;;;;;7.55;6.32;;;;;;;35.85;28.82;99101.28;4996002;28;20281;-71
2022/08/31 10:37:42;;;;;;;10.05;6.82;;;;;;;35.90;28.85;99112.03;4995547;28;20714;-71
2022/08/31 10:40:14;;;;;;;12.18;7.05;;;;;;;36.19;28.92;99109.31;4995829;28;20256;-72
2022/08/31 10:42:48;;;;;;;11.90;6.95;;;;;;;35.34;29.64;99102.78;4995845;28;20543;-70
2022/08/31 10:45:21;;;;;;;11.45;7.40;;;;;;;35.57;29.63;99109.09;4996180;28;20210;-74
2022/08/31 10:47:50;;;;;;;8.57;6.78;;;;;;;35.75;29.28;99107.44;4995279;28;20725;-71
2022/08/31 10:50:27;;;;;;;10.52;6.72;;;;;;;35.88;29.50;99106.88;4995844;28;20195;-72
2022/08/31 10:53:05;;;;;;;8.13;7.28;;;;;;;35.74;28.96;99105.81;4996280;28;20253;-74
2022/08/31 10:55:38;;;;;;;12.25;7.43;;;;;;;35.70;29.35;99100.25;5021258;28;20199;-72
2022/08/31 10:58:16;;;;;;;9.73;7.38;;;;;;;35.82;29.58;99091.78;5014492;28;20657;-71
2022/08/31 11:00:51;;;;;;;10.20;7.07;;;;;;;36.02;29.53;99100.75;5015247;28;20190;-71
2022/08/31 11:03:33;;;;;;;13.88;7.07;;;;;;;35.56;29.89;99099.22;5013061;28;20177;-72
2022/08/31 11:06:05;;;;;;;10.02;6.75;;;;;;;35.31;29.71;99109.06;5032727;28;20276;-72
2022/08/31 11:08:48;;;;;;;9.75;6.45;;;;;;;35.54;29.77;99107.06;5035551;28;20185;-71
2022/08/31 11:11:27;;;;;;;11.00;6.18;;;;;;;35.69;29.55;99104.16;5034862;28;20220;-72
2022/08/31 11:14:13;;;;;;;8.88;6.05;;;;;;;35.51;29.90;99103.09;5034013;28;20572;-72
2022/08/31 11:16:59;;;;;;;17.15;6.45;;;;;;;35.59;29.61;99098.47;5032676;28;20213;-72
2022/08/31 11:19:49;;;;;;;20.48;6.20;;;;;;;35.55;29.51;99100.38;5033582;28;20185;-72
2022/08/31 11:23:01;;;;;;;8.50;6.28;;;;;;;35.50;30.06;99103.44;5033841;28;20277;-71
2022/08/31 11:25:58;;;;;;;13.90;6.15;;;;;;;35.27;29.97;99097.13;5032326;28;20197;-71
2022/08/31 11:28:30;;;;;;;8.18;6.10;;;;;;;35.27;29.55;99097.91;5034325;28;20221;-73
2022/08/31 11:31:00;;;;;;;9.90;6.70;;;;;;;35.19;30.35;99101.69;5034787;28;20185;-73
2022/08/31 11:33:29;;;;;;;17.67;5.82;;;;;;;35.03;29.48;99103.00;5034508;28;20209;-73
2022/08/31 11:36:07;;;;;;;8.35;5.47;;;;;;;35.03;29.64;99097.47;5034196;28;20197;-73
2022/08/31 11:39:10;;;;;;;15.93;6.20;;;;;;;35.09;30.12;99107.03;5034195;28;20216;-69
2022/08/31 11:41:42;;;;;;;7.00;5.35;;;;;;;34.78;29.96;99115.50;5034174;28;20257;-69
2022/08/31 11:44:30;;;;;;;13.50;5.13;;;;;;;34.82;29.82;99092.31;5034151;28;20280;-70
2022/08/31 11:47:05;;;;;;;13.60;5.63;;;;;;;34.80;29.55;99071.78;5034346;28;20201;-69
2022/08/31 11:49:43;;;;;;;12.73;6.03;;;;;;;35.15;29.64;99100.06;5034286;28;20242;-71